Time;durP1;ratioP1;P1;durP2;ratioP2;P2;SDS_P1;SDS_P2;PMS_P1;PMS_P2;Temp;Humidity;BMP_temperature;BMP_pressure;BME280_temperature;BME280_humidity;BME280_pressure;Samples;Min_cycle;Max_cycle;Signal;HPM_P1;HPM_P2
2021/10/09 00:00:09;;;;;;;29.63;16.70;;;;;;;14.21;60.89;102873.44;4960804;28;123953;-68
2021/10/09 00:02:37;;;;;;;28.05;16.90;;;;;;;14.19;60.86;102869.94;4956237;28;120044;-69
2021/10/09 00:05:07;;;;;;;29.17;16.02;;;;;;;14.19;60.91;102869.94;4967015;28;118872;-69
2021/10/09 00:07:34;;;;;;;26.77;16.25;;;;;;;14.18;60.95;102865.56;4955286;28;123886;-69
2021/10/09 00:10:05;;;;;;;29.83;17.38;;;;;;;14.19;60.86;102864.63;4958144;28;123959;-68
2021/10/09 00:12:32;;;;;;;29.65;16.85;;;;;;;14.19;60.82;102866.41;4965750;28;119301;-70
2021/10/09 00:15:02;;;;;;;28.70;17.15;;;;;;;14.17;60.86;102865.59;4961784;28;120510;-69
2021/10/09 00:17:30;;;;;;;28.25;16.83;;;;;;;14.15;60.98;102862.97;4962279;28;124443;-69
2021/10/09 00:19:57;;;;;;;27.95;16.42;;;;;;;14.14;61.06;102866.53;4957802;28;124764;-69
2021/10/09 00:22:24;;;;;;;28.67;16.33;;;;;;;14.14;60.82;102861.19;4963596;28;119442;-68
2021/10/09 00:24:52;;;;;;;31.63;17.05;;;;;;;14.15;60.84;102862.97;4964499;28;118791;-68
2021/10/09 00:27:19;;;;;;;28.77;16.58;;;;;;;14.14;60.72;102866.53;4963840;28;123966;-68
2021/10/09 00:29:47;;;;;;;27.65;16.55;;;;;;;14.14;60.78;102861.19;4946736;28;124040;-68
2021/10/09 00:32:16;;;;;;;27.10;16.25;;;;;;;14.12;60.75;102863.03;4946462;28;118391;-68
2021/10/09 00:34:43;;;;;;;27.77;17.17;;;;;;;14.12;60.80;102863.03;4963902;28;119318;-68
2021/10/09 00:37:10;;;;;;;29.73;16.95;;;;;;;14.11;60.73;102861.31;4950800;28;124348;-68
2021/10/09 00:39:37;;;;;;;27.48;16.23;;;;;;;14.10;60.63;102862.22;4945492;28;122785;-68
2021/10/09 00:42:05;;;;;;;27.38;16.35;;;;;;;14.09;60.64;102857.81;4943580;28;119896;-67
2021/10/09 00:44:32;;;;;;;30.30;16.92;;;;;;;14.07;60.56;102859.66;4965224;28;119364;-67
2021/10/09 00:47:01;;;;;;;31.52;17.48;;;;;;;14.05;60.48;102861.44;4952415;28;123476;-68
2021/10/09 00:49:30;;;;;;;30.70;17.23;;;;;;;14.01;60.44;102860.69;4962815;28;123721;-68
2021/10/09 00:52:01;;;;;;;29.73;17.38;;;;;;;14.01;60.68;102849.13;4958022;28;119580;-68
2021/10/09 00:54:29;;;;;;;30.52;16.83;;;;;;;13.98;60.54;102854.56;4951514;28;118046;-68
2021/10/09 00:56:58;;;;;;;32.40;17.92;;;;;;;13.97;60.58;102858.13;4951545;28;122895;-67
2021/10/09 00:59:26;;;;;;;29.55;17.20;;;;;;;13.95;60.62;102859.97;4957962;28;124767;-68
2021/10/09 01:02:02;;;;;;;33.42;17.77;;;;;;;13.91;60.66;102852.97;4948603;28;119542;-67
2021/10/09 01:04:31;;;;;;;31.23;16.88;;;;;;;13.90;60.61;102845.88;4969417;28;120738;-67
2021/10/09 01:07:00;;;;;;;30.83;17.27;;;;;;;13.87;60.57;102851.31;4951933;28;123240;-67
2021/10/09 01:09:27;;;;;;;29.45;16.52;;;;;;;13.83;60.74;102851.38;4960060;28;123810;-67
2021/10/09 01:11:54;;;;;;;29.13;17.08;;;;;;;13.80;60.76;102848.78;4959722;28;119123;-67
2021/10/09 01:14:25;;;;;;;29.65;16.92;;;;;;;13.78;60.72;102847.97;4942197;28;118115;-67
2021/10/09 01:16:52;;;;;;;34.03;17.02;;;;;;;13.76;60.73;102844.47;4962773;28;124112;-67
2021/10/09 01:19:19;;;;;;;30.55;17.05;;;;;;;13.75;60.73;102853.38;4961438;28;124368;-67
2021/10/09 01:21:50;;;;;;;27.80;16.63;;;;;;;13.74;60.79;102848.97;4951677;28;118407;-68
2021/10/09 01:24:20;;;;;;;30.38;16.70;;;;;;;13.70;60.73;102849.97;4951695;28;117995;-68
2021/10/09 01:26:48;;;;;;;29.02;16.20;;;;;;;13.69;60.49;102837.53;4951151;28;123031;-68
2021/10/09 01:29:21;;;;;;;30.63;16.63;;;;;;;13.67;60.67;102839.38;4964267;28;123461;-68
2021/10/09 01:31:51;;;;;;;32.22;17.70;;;;;;;13.65;60.52;102843.00;4965873;28;118332;-67
2021/10/09 01:34:21;;;;;;;30.55;16.75;;;;;;;13.61;60.56;102840.41;4942251;28;118309;-67
2021/10/09 01:36:53;;;;;;;28.17;16.17;;;;;;;13.57;60.39;102843.19;4951095;28;123208;-69
2021/10/09 01:39:21;;;;;;;29.25;16.23;;;;;;;13.53;60.46;102846.88;4953529;28;122737;-67
2021/10/09 01:41:51;;;;;;;32.25;17.10;;;;;;;13.50;60.39;102844.28;4950460;28;118473;-67
2021/10/09 01:44:30;;;;;;;30.90;16.02;;;;;;;13.46;60.36;102839.94;4943195;28;118698;-68
2021/10/09 01:46:58;;;;;;;32.20;16.38;;;;;;;13.41;60.46;102843.59;4947902;28;123577;-68
2021/10/09 01:49:30;;;;;;;27.73;16.10;;;;;;;13.38;60.46;102843.66;4949443;28;122278;-67
2021/10/09 01:52:02;;;;;;;27.58;16.45;;;;;;;13.34;60.41;102842.00;4961874;28;119585;-67
2021/10/09 01:54:29;;;;;;;32.00;17.38;;;;;;;13.31;60.27;102842.06;4967751;28;120242;-68
2021/10/09 01:56:56;;;;;;;31.45;16.50;;;;;;;13.28;60.22;102836.78;4955361;28;122942;-70
2021/10/09 01:59:23;;;;;;;32.67;17.73;;;;;;;13.24;60.43;102840.41;4947897;28;122839;-67
2021/10/09 02:01:57;;;;;;;31.50;16.92;;;;;;;13.21;60.34;102846.69;4951660;28;118875;-70
2021/10/09 02:04:26;;;;;;;32.33;16.75;;;;;;;13.18;60.44;102840.56;4951108;28;118284;-70
2021/10/09 02:06:54;;;;;;;33.42;17.92;;;;;;;13.14;60.38;102844.22;4951011;28;123521;-69
2021/10/09 02:09:21;;;;;;;33.80;17.67;;;;;;;13.12;60.50;102835.41;4949637;28;123166;-70
2021/10/09 02:11:50;;;;;;;31.15;17.05;;;;;;;13.08;60.67;102839.06;4968348;28;119710;-70
2021/10/09 02:14:27;;;;;;;33.00;17.58;;;;;;;13.04;60.49;102831.13;4952976;28;118155;-70
2021/10/09 02:25:38;;;;;;;;;;;;;;;12.90;60.39;102830.56;4950606;28;118826;-70
2021/10/09 02:28:05;;;;;;;34.00;17.10;;;;;;;12.88;60.29;102831.53;4950520;28;123594;-74
2021/10/09 02:30:34;;;;;;;32.53;17.00;;;;;;;12.83;60.57;102828.97;4952740;28;123149;-70
2021/10/09 02:33:02;;;;;;;31.42;17.52;;;;;;;12.81;60.54;102836.13;4950860;28;118168;-70
2021/10/09 02:35:31;;;;;;;34.72;17.90;;;;;;;12.77;60.62;102824.69;4951218;28;118293;-70
2021/10/09 02:37:59;;;;;;;35.33;17.52;;;;;;;12.76;60.72;102827.38;4945807;28;123008;-70
2021/10/09 02:40:27;;;;;;;30.25;16.98;;;;;;;12.73;60.68;102827.41;4962913;28;123070;-70
2021/10/09 02:42:55;;;;;;;30.55;17.20;;;;;;;12.70;60.66;102827.50;4948297;28;119540;-70
2021/10/09 02:45:24;;;;;;;31.38;17.63;;;;;;;12.68;60.67;102823.97;4948375;28;119084;-70
2021/10/09 02:47:52;;;;;;;30.52;17.23;;;;;;;12.65;60.74;102828.47;4950627;28;123201;-70
2021/10/09 02:50:19;;;;;;;29.75;16.98;;;;;;;12.62;60.79;102831.22;4961723;28;124041;-70
2021/10/09 02:52:49;;;;;;;32.40;17.08;;;;;;;12.60;60.71;102833.03;4947838;28;118483;-70
2021/10/09 02:55:19;;;;;;;31.13;17.20;;;;;;;12.59;60.80;102822.41;4967300;28;117473;-67
2021/10/09 02:57:48;;;;;;;34.65;17.63;;;;;;;12.56;60.94;102826.00;4936487;28;123423;-68
2021/10/09 03:00:17;;;;;;;29.63;15.90;;;;;;;12.54;60.97;102827.81;4961557;28;123281;-68
2021/10/09 03:02:45;;;;;;;36.08;18.55;;;;;;;12.52;60.96;102824.31;4952870;28;118514;-67
2021/10/09 03:05:13;;;;;;;33.88;18.10;;;;;;;12.51;61.12;102822.59;4955608;28;119026;-68
2021/10/09 03:07:41;;;;;;;35.20;17.35;;;;;;;12.48;60.98;102817.31;4954187;28;123755;-67
2021/10/09 03:10:10;;;;;;;33.05;18.40;;;;;;;12.48;61.06;102827.94;4936154;28;123361;-68
2021/10/09 03:12:41;;;;;;;32.10;17.65;;;;;;;12.46;61.08;102824.47;4946146;28;118376;-67
2021/10/09 03:15:10;;;;;;;34.00;17.75;;;;;;;12.45;61.17;102833.31;4957733;28;119106;-67
2021/10/09 03:17:38;;;;;;;33.30;17.00;;;;;;;12.43;61.15;102824.50;4935729;28;123476;-67
2021/10/09 03:20:08;;;;;;;36.38;17.85;;;;;;;12.41;61.08;102815.69;4938345;28;123031;-67
2021/10/09 03:22:37;;;;;;;37.65;17.73;;;;;;;12.39;61.11;102817.50;4940289;28;119823;-67
2021/10/09 03:25:07;;;;;;;35.40;18.25;;;;;;;12.38;61.02;102821.09;4934215;28;118042;-70
2021/10/09 03:27:35;;;;;;;34.05;17.13;;;;;;;12.35;61.11;102819.34;4937420;28;123148;-67
2021/10/09 03:30:04;;;;;;;33.38;16.77;;;;;;;12.35;61.04;102821.16;4950467;28;123115;-68
2021/10/09 03:32:35;;;;;;;31.05;16.45;;;;;;;12.32;60.96;102827.41;4942181;28;119592;-67
2021/10/09 03:35:04;;;;;;;32.30;17.52;;;;;;;12.31;60.97;102827.44;4958345;28;119085;-68
2021/10/09 03:37:31;;;;;;;33.17;17.30;;;;;;;12.27;61.03;102830.16;4960955;28;122821;-68
2021/10/09 03:40:02;;;;;;;30.30;16.33;;;;;;;12.26;61.03;102828.41;4957986;28;123055;-68
2021/10/09 03:42:38;;;;;;;33.75;17.30;;;;;;;12.24;61.14;102830.22;4949378;28;118601;-68
2021/10/09 03:48:04;;;;;;;29.60;16.08;;;;;;;12.19;61.00;102832.09;4954102;28;123586;-68
2021/10/09 03:53:01;;;;;;;25.75;14.70;;;;;;;12.12;60.83;102826.94;4953697;28;118446;-69
2021/10/09 03:55:29;;;;;;;26.70;15.20;;;;;;;12.07;60.98;102821.69;4933439;28;118673;-69
2021/10/09 03:57:56;;;;;;;29.75;15.30;;;;;;;12.05;60.89;102828.81;4949058;28;125564;-70
2021/10/09 04:00:26;;;;;;;29.60;15.75;;;;;;;12.03;61.03;102835.94;4932062;28;123139;-68
2021/10/09 04:02:59;;;;;;;28.38;15.75;;;;;;;12.01;61.05;102827.13;4936515;28;118484;-68
2021/10/09 04:05:27;;;;;;;28.80;16.10;;;;;;;12.00;60.89;102836.03;4940972;28;118727;-68
2021/10/09 04:07:55;;;;;;;27.67;15.35;;;;;;;11.98;60.88;102827.19;4956056;28;122901;-67
2021/10/09 04:10:22;;;;;;;40.17;17.55;;;;;;;11.95;60.92;102832.56;4951806;28;124249;-68
2021/10/09 04:12:52;;;;;;;36.38;16.55;;;;;;;11.93;60.90;102829.06;4931863;28;119739;-68
2021/10/09 04:15:20;;;;;;;32.03;16.10;;;;;;;11.90;60.87;102829.13;4938722;28;118376;-68
2021/10/09 04:17:47;;;;;;;40.88;16.23;;;;;;;11.87;60.70;102836.19;4943517;28;123262;-68
2021/10/09 04:20:14;;;;;;;32.83;16.20;;;;;;;11.84;60.88;102830.06;4933045;28;122824;-67
2021/10/09 04:22:44;;;;;;;29.77;15.88;;;;;;;11.82;60.95;102822.13;4950623;28;120333;-70
2021/10/09 04:25:12;;;;;;;28.90;15.18;;;;;;;11.79;61.15;102827.50;4936838;28;119072;-67
2021/10/09 04:27:40;;;;;;;30.02;15.13;;;;;;;11.76;60.94;102827.56;4953801;28;123248;-67
2021/10/09 04:30:08;;;;;;;29.13;15.27;;;;;;;11.73;60.96;102827.59;4953286;28;123657;-67
2021/10/09 04:32:36;;;;;;;26.00;14.07;;;;;;;11.70;61.14;102822.38;4939018;28;118436;-68
2021/10/09 04:35:06;;;;;;;32.60;15.52;;;;;;;11.68;61.29;102829.47;4948992;28;119249;-67
2021/10/09 04:37:34;;;;;;;33.13;16.83;;;;;;;11.67;61.27;102830.38;4949706;28;123480;-68
2021/10/09 04:40:03;;;;;;;49.08;17.27;;;;;;;11.64;61.20;102827.75;4932814;28;124386;-68
2021/10/09 04:42:35;;;;;;;36.22;17.30;;;;;;;11.64;61.69;102827.75;4938289;28;122249;-68
2021/10/09 04:45:04;;;;;;;33.25;16.33;;;;;;;11.62;61.42;102829.56;4935061;28;118945;-68
2021/10/09 04:47:34;;;;;;;29.85;15.52;;;;;;;11.61;61.48;102831.34;4949934;28;123365;-68
2021/10/09 04:50:04;;;;;;;35.55;16.58;;;;;;;11.60;61.45;102837.59;4936121;28;123067;-68
2021/10/09 04:52:31;;;;;;;31.98;16.13;;;;;;;11.59;61.39;102837.59;4920863;28;118254;-68
2021/10/09 04:55:00;;;;;;;31.38;15.95;;;;;;;11.55;61.36;102833.25;4932548;28;118711;-68
2021/10/09 04:57:27;;;;;;;27.25;14.80;;;;;;;11.54;61.17;102836.78;4947805;28;123609;-68
2021/10/09 04:59:54;;;;;;;26.13;14.25;;;;;;;11.49;61.26;102829.81;4950651;28;123781;-68
2021/10/09 05:02:23;;;;;;;28.45;14.45;;;;;;;11.47;61.22;102842.22;4936636;28;118536;-68
2021/10/09 05:04:51;;;;;;;29.15;15.85;;;;;;;11.45;61.07;102843.13;4938704;28;118301;-69
2021/10/09 05:07:19;;;;;;;28.25;14.45;;;;;;;11.42;61.10;102844.06;4958107;28;123180;-69
2021/10/09 05:09:47;;;;;;;27.20;14.23;;;;;;;11.38;61.11;102831.75;4940239;28;122717;-71
2021/10/09 05:12:15;;;;;;;29.23;13.93;;;;;;;11.35;61.03;102837.09;4947829;28;119272;-68
2021/10/09 05:14:43;;;;;;;26.95;14.13;;;;;;;11.33;61.16;102833.59;4950049;28;119359;-68
2021/10/09 05:17:10;;;;;;;24.27;12.75;;;;;;;11.30;61.14;102828.31;4935663;28;123655;-68
2021/10/09 05:19:38;;;;;;;26.10;13.60;;;;;;;11.28;61.29;102836.34;4950301;28;123683;-68
2021/10/09 05:22:10;;;;;;;25.80;13.20;;;;;;;11.25;61.26;102831.06;4954170;28;118474;-69
2021/10/09 05:24:37;;;;;;;23.10;12.48;;;;;;;11.23;61.34;102842.63;4933560;28;118124;-69
2021/10/09 05:27:05;;;;;;;25.55;13.07;;;;;;;11.20;61.36;102842.66;4951716;28;124195;-70
2021/10/09 05:29:33;;;;;;;22.00;12.85;;;;;;;11.17;61.26;102842.69;4933420;28;123308;-69
2021/10/09 05:32:05;;;;;;;24.13;13.38;;;;;;;11.16;61.34;102840.94;4953006;28;119173;-69
2021/10/09 05:34:32;;;;;;;25.70;13.73;;;;;;;11.11;61.24;102838.34;4939556;28;118259;-69
2021/10/09 05:37:00;;;;;;;28.30;15.43;;;;;;;11.12;61.40;102849.84;4951908;28;123629;-69
2021/10/09 05:39:29;;;;;;;29.45;14.85;;;;;;;11.09;61.50;102851.66;4938562;28;122947;-69
2021/10/09 05:41:58;;;;;;;31.15;14.98;;;;;;;11.09;61.38;102850.75;4936958;28;117694;-69
2021/10/09 05:44:26;;;;;;;30.10;15.25;;;;;;;11.08;61.65;102849.91;4934111;28;118476;-69
2021/10/09 05:46:53;;;;;;;30.25;15.15;;;;;;;11.06;61.46;102851.69;4939654;28;124927;-69
2021/10/09 05:49:22;;;;;;;30.50;14.73;;;;;;;11.04;61.44;102848.19;4936263;28;123017;-69
2021/10/09 05:54:24;;;;;;;30.15;15.55;;;;;;;11.02;61.48;102850.00;4954883;28;118151;-70
2021/10/09 05:57:08;;;;;;;28.23;15.05;;;;;;;11.01;61.49;102848.22;4954057;28;123277;-70
2021/10/09 06:00:07;;;;;;;30.58;15.48;;;;;;;10.99;61.42;102850.03;4939124;28;123162;-70
2021/10/09 06:31:01;;;;;;;30.25;15.77;;;;;;;10.93;62.06;102868.69;4951751;28;120229;-70
2021/10/09 06:42:17;;;;;;;32.17;16.02;;;;;;;11.06;62.30;102867.59;4940534;28;123950;-70
2021/10/09 06:50:28;;;;;;;34.67;18.67;;;;;;;11.24;62.36;102876.19;4965642;28;118139;-70
2021/10/09 07:01:32;;;;;;;38.15;18.70;;;;;;;11.53;62.69;102890.75;4902185;28;120167;-70
2021/10/09 07:04:01;;;;;;;37.28;19.25;;;;;;;11.58;62.91;102896.88;4937661;28;123364;-70
2021/10/09 07:06:31;;;;;;;38.53;19.05;;;;;;;11.61;62.89;102887.09;4956694;28;122187;-70
2021/10/09 07:09:03;;;;;;;40.70;19.75;;;;;;;11.65;62.97;102890.56;4936916;28;119059;-70
2021/10/09 07:11:50;;;;;;;39.75;19.63;;;;;;;11.71;62.82;102898.44;4953150;28;118238;-70
2021/10/09 07:14:17;;;;;;;39.95;19.45;;;;;;;11.74;63.28;102893.06;4934777;28;123486;-70
2021/10/09 07:16:46;;;;;;;42.17;19.63;;;;;;;11.78;63.26;102894.78;4956930;28;124402;-70
2021/10/09 07:19:14;;;;;;;42.95;20.63;;;;;;;11.84;63.28;102893.78;4934165;28;118401;-70
2021/10/09 07:21:43;;;;;;;49.53;21.65;;;;;;;11.91;63.43;102899.91;4935581;28;118194;-70
2021/10/09 07:24:33;;;;;;;46.15;22.67;;;;;;;11.96;63.62;102900.69;4938751;28;123316;-70
2021/10/09 07:27:01;;;;;;;45.30;22.23;;;;;;;12.00;63.52;102899.75;4941237;28;123492;-70
2021/10/09 07:29:28;;;;;;;44.33;21.38;;;;;;;12.06;63.51;102899.63;4955828;28;119193;-70
2021/10/09 07:31:55;;;;;;;44.28;21.92;;;;;;;12.13;63.72;102901.28;4952285;28;118374;-70
2021/10/09 07:34:23;;;;;;;47.13;22.60;;;;;;;12.20;63.81;102902.03;4951497;28;123988;-70
2021/10/09 07:36:50;;;;;;;44.05;21.67;;;;;;;12.26;63.89;102908.13;4962353;28;123731;-70
2021/10/09 07:39:17;;;;;;;47.88;21.80;;;;;;;12.33;64.04;102910.66;4961233;28;119096;-70
2021/10/09 07:41:44;;;;;;;42.78;21.75;;;;;;;12.39;63.90;102907.88;4956883;28;118386;-70
2021/10/09 07:44:11;;;;;;;47.50;22.80;;;;;;;12.45;64.17;102910.38;4954162;28;124364;-70
2021/10/09 07:46:39;;;;;;;46.15;22.23;;;;;;;12.51;64.08;102910.28;4953804;28;124589;-70
2021/10/09 07:49:06;;;;;;;47.47;21.23;;;;;;;12.58;64.00;102909.28;4953777;28;119464;-69
2021/10/09 07:51:33;;;;;;;45.70;22.45;;;;;;;12.64;64.15;102903.81;4966392;28;120021;-70
2021/10/09 07:54:00;;;;;;;44.58;21.80;;;;;;;12.72;64.09;102910.78;4966184;28;124096;-69
2021/10/09 07:56:27;;;;;;;46.17;22.10;;;;;;;12.78;64.12;102913.28;4969309;28;124726;-69
2021/10/09 07:58:54;;;;;;;45.67;22.27;;;;;;;12.84;64.13;102915.81;4958580;28;118440;-69
2021/10/09 08:01:21;;;;;;;43.15;21.67;;;;;;;12.89;64.16;102908.63;4969147;28;119513;-70
2021/10/09 08:03:49;;;;;;;44.22;22.13;;;;;;;12.97;64.17;102916.44;4969046;28;124690;-69
2021/10/09 08:06:16;;;;;;;43.03;22.58;;;;;;;13.03;64.19;102917.19;4955894;28;123555;-70
2021/10/09 08:08:44;;;;;;;47.70;22.38;;;;;;;13.10;64.30;102917.03;4967636;28;119583;-70
2021/10/09 08:11:11;;;;;;;41.33;21.10;;;;;;;13.17;64.26;102913.34;4934430;28;118552;-70
2021/10/09 08:13:38;;;;;;;41.15;21.75;;;;;;;13.23;64.26;102914.06;4965825;28;124745;-70
2021/10/09 08:16:06;;;;;;;43.80;22.10;;;;;;;13.30;64.35;102912.19;4969042;28;123939;-70
2021/10/09 08:18:34;;;;;;;42.33;21.55;;;;;;;13.37;64.20;102916.44;4966627;28;119154;-70
2021/10/09 08:21:06;;;;;;;44.28;23.15;;;;;;;13.46;64.15;102914.47;4955981;28;119644;-70
2021/10/09 08:23:47;;;;;;;43.88;22.17;;;;;;;13.53;64.42;102921.41;4967874;28;124096;-70
2021/10/09 08:40:04;;;;;;;;;;;;;;;14.10;64.04;102928.81;4942969;28;119433;-69
2021/10/09 08:42:33;;;;;;;41.47;21.13;;;;;;;14.23;63.87;102933.84;4969699;28;120624;-69
2021/10/09 08:45:00;;;;;;;39.65;21.20;;;;;;;14.32;64.00;102933.59;4957231;28;123125;-69
2021/10/09 08:47:32;;;;;;;36.40;21.70;;;;;;;14.42;63.85;102937.75;4967194;28;124079;-69
2021/10/09 08:50:00;;;;;;;39.70;20.75;;;;;;;14.50;63.61;102941.06;4968156;28;119234;-69
2021/10/09 08:52:29;;;;;;;40.13;20.73;;;;;;;14.59;63.69;102938.16;4969038;28;119261;-70
2021/10/09 08:54:57;;;;;;;39.20;21.42;;;;;;;14.68;63.35;102941.53;4969091;28;124174;-70
2021/10/09 08:57:27;;;;;;;39.55;21.30;;;;;;;14.77;63.34;102946.59;4967600;28;124200;-70
2021/10/09 09:05:08;;;;;;;37.45;20.58;;;;;;;15.01;63.00;102941.44;4964723;28;124119;-69
2021/10/09 09:25:24;;;;;;;38.47;20.60;;;;;;;15.20;63.08;102953.31;4960220;28;119683;-69
2021/10/09 09:37:14;;;;;;;37.17;20.08;;;;;;;16.05;61.94;102932.75;4967652;28;124105;-69
2021/10/09 09:39:44;;;;;;;33.83;19.20;;;;;;;16.14;61.70;102928.88;4965609;28;124243;-69
2021/10/09 09:42:22;;;;;;;34.80;19.30;;;;;;;16.22;61.76;102920.59;4956171;28;120065;-69
2021/10/09 09:44:57;;;;;;;37.10;19.88;;;;;;;16.31;61.40;102920.25;4962863;28;118201;-69
2021/10/09 09:47:36;;;;;;;35.38;19.83;;;;;;;16.36;61.21;102923.66;4955429;28;123223;-69
2021/10/09 09:50:05;;;;;;;36.47;20.90;;;;;;;16.42;60.86;102918.06;4969685;28;123697;-69
2021/10/09 09:52:38;;;;;;;35.28;19.35;;;;;;;16.47;60.91;102916.09;4968693;28;119626;-69
2021/10/09 09:55:07;;;;;;;39.65;19.88;;;;;;;16.51;60.82;102912.38;4965726;28;119159;-69
2021/10/09 09:57:36;;;;;;;39.88;21.05;;;;;;;16.58;60.77;102917.53;4971646;28;123902;-69
2021/10/09 10:00:12;;;;;;;33.13;19.30;;;;;;;16.65;60.65;102911.00;4968551;28;124058;-67
2021/10/09 10:02:56;;;;;;;34.55;20.48;;;;;;;16.73;60.54;102906.25;4965914;28;119467;-67
2021/10/09 10:05:27;;;;;;;33.00;19.60;;;;;;;16.80;60.49;102910.44;4967007;28;119752;-67
2021/10/09 10:07:55;;;;;;;41.55;20.60;;;;;;;16.87;60.54;102920.00;4971557;28;124700;-67
2021/10/09 10:10:23;;;;;;;33.05;19.73;;;;;;;16.93;60.56;102914.44;4971009;28;124268;-67
2021/10/09 10:12:55;;;;;;;33.42;18.42;;;;;;;17.02;60.07;102909.63;4969973;28;119688;-67
2021/10/09 10:15:31;;;;;;;33.90;19.05;;;;;;;17.07;60.22;102910.34;4970554;28;119196;-67
2021/10/09 10:17:58;;;;;;;34.20;19.85;;;;;;;17.15;59.95;102908.22;4969793;28;124170;-68
2021/10/09 10:20:46;;;;;;;36.63;19.75;;;;;;;17.20;60.01;102906.22;4958000;28;124211;-68
2021/10/09 10:23:34;;;;;;;35.30;20.02;;;;;;;17.27;59.86;102899.69;4952608;28;120625;-68
2021/10/09 10:26:21;;;;;;;33.75;20.38;;;;;;;17.35;59.95;102898.50;4958988;28;120713;-68
2021/10/09 10:28:54;;;;;;;31.58;17.55;;;;;;;17.43;59.58;102907.09;4951141;28;123866;-68
2021/10/09 10:31:23;;;;;;;32.97;19.33;;;;;;;17.50;59.49;102909.47;4969116;28;123619;-68
2021/10/09 10:34:00;;;;;;;33.35;19.90;;;;;;;17.58;59.57;102895.75;4966253;28;119614;-68
2021/10/09 10:36:39;;;;;;;32.35;18.30;;;;;;;17.65;58.76;102902.59;4971009;28;119482;-68
2021/10/09 10:39:08;;;;;;;34.35;19.13;;;;;;;17.69;58.73;102904.22;4967031;28;124123;-68
2021/10/09 10:42:04;;;;;;;31.00;18.50;;;;;;;17.77;58.64;102900.34;4953884;28;123098;-68
2021/10/09 10:44:48;;;;;;;30.90;18.40;;;;;;;17.86;58.81;102899.97;4970140;28;119391;-68
2021/10/09 10:50:51;;;;;;;33.35;18.88;;;;;;;18.03;58.54;102897.44;4963928;28;123942;-68
2021/10/09 10:53:34;;;;;;;33.10;18.67;;;;;;;18.09;58.01;102902.53;4946389;28;124261;-68
2021/10/09 10:56:11;;;;;;;34.58;18.52;;;;;;;18.13;57.20;102897.03;4957436;28;119405;-68
2021/10/09 10:58:39;;;;;;;33.30;18.10;;;;;;;18.16;57.71;102894.19;4968262;28;119009;-68
2021/10/09 11:01:21;;;;;;;32.22;18.80;;;;;;;18.22;57.43;102896.63;4965337;28;124491;-68
2021/10/09 11:03:51;;;;;;;33.13;17.45;;;;;;;18.28;57.34;102896.34;4952968;28;124074;-68
2021/10/09 11:06:24;;;;;;;31.73;18.17;;;;;;;18.33;57.21;102894.34;4952916;28;119314;-68
2021/10/09 11:08:53;;;;;;;27.83;17.48;;;;;;;18.39;56.95;102891.38;4951927;28;119347;-68
2021/10/09 11:11:43;;;;;;;33.10;18.73;;;;;;;18.41;56.70;102897.53;4955525;28;124521;-68
2021/10/09 11:14:21;;;;;;;29.90;17.88;;;;;;;18.45;56.79;102885.72;4950059;28;123437;-69
2021/10/09 11:16:58;;;;;;;30.50;17.60;;;;;;;18.54;56.71;102886.25;4947671;28;119548;-69
2021/10/09 11:19:45;;;;;;;30.23;18.55;;;;;;;18.61;56.58;102887.69;4962697;28;119431;-69
2021/10/09 11:22:14;;;;;;;29.80;17.75;;;;;;;18.67;56.35;102887.44;4954278;28;123986;-69
2021/10/09 11:24:48;;;;;;;32.53;17.77;;;;;;;18.70;56.33;102892.63;4949375;28;122799;-69
2021/10/09 11:27:18;;;;;;;30.05;17.15;;;;;;;18.75;56.18;102879.88;4967965;28;119432;-69
2021/10/09 11:30:04;;;;;;;28.55;17.17;;;;;;;18.84;56.48;102890.22;4966862;28;119332;-69
2021/10/09 11:32:33;;;;;;;30.75;17.63;;;;;;;18.98;56.00;102886.00;4950687;28;124930;-69
2021/10/09 11:35:02;;;;;;;28.92;17.23;;;;;;;19.06;55.49;102883.81;4958308;28;124409;-69
2021/10/09 11:37:29;;;;;;;27.75;17.05;;;;;;;19.10;55.29;102877.38;4967406;28;119378;-69
2021/10/09 11:40:00;;;;;;;30.20;18.35;;;;;;;19.12;54.87;102878.16;4948383;28;119613;-69
2021/10/09 11:42:31;;;;;;;28.85;17.10;;;;;;;19.16;55.14;102879.75;4961809;28;124897;-69
2021/10/09 11:45:25;;;;;;;31.90;17.13;;;;;;;19.20;55.02;102875.94;4966051;28;123798;-69
2021/10/09 11:53:50;;;;;;;29.52;17.95;;;;;;;19.46;55.06;102871.09;4961765;28;123919;-69
2021/10/09 11:56:19;;;;;;;30.10;17.55;;;;;;;19.55;54.95;102870.66;4966302;28;123875;-69
2021/10/09 11:58:54;;;;;;;26.50;17.10;;;;;;;19.62;54.36;102872.06;4969802;28;119112;-69
2021/10/09 12:01:38;;;;;;;28.67;17.73;;;;;;;19.64;54.13;102875.53;4965291;28;120197;-69
2021/10/09 12:04:14;;;;;;;27.05;17.17;;;;;;;19.67;53.88;102874.53;4967660;28;124187;-69
2021/10/09 12:06:55;;;;;;;32.35;17.38;;;;;;;19.71;53.81;102869.84;4963073;28;124170;-69
2021/10/09 12:09:45;;;;;;;26.55;16.05;;;;;;;19.72;53.73;102866.19;4931453;28;120863;-69
2021/10/09 12:12:21;;;;;;;25.35;15.95;;;;;;;19.76;53.74;102867.81;4963257;28;119923;-68
2021/10/09 12:14:51;;;;;;;28.48;15.38;;;;;;;19.82;54.01;102862.16;4955168;28;124057;-69
2021/10/09 12:17:21;;;;;;;23.55;15.73;;;;;;;19.91;53.71;102861.66;4967471;28;124297;-68
2021/10/09 12:19:59;;;;;;;26.98;16.70;;;;;;;19.99;53.69;102864.81;4951252;28;119549;-69
2021/10/09 12:22:27;;;;;;;28.63;16.33;;;;;;;20.06;53.51;102854.59;4968064;28;119334;-69
2021/10/09 12:24:55;;;;;;;28.50;17.25;;;;;;;20.12;53.46;102856.09;4967193;28;124021;-70
2021/10/09 12:27:28;;;;;;;26.58;16.27;;;;;;;20.19;53.03;102854.78;4953887;28;122824;-69
2021/10/09 12:30:08;;;;;;;24.98;15.88;;;;;;;20.26;52.85;102844.59;4956071;28;119374;-69
2021/10/09 12:32:47;;;;;;;26.00;15.75;;;;;;;20.28;52.58;102843.53;4966831;28;119343;-68
2021/10/09 12:35:24;;;;;;;25.40;15.32;;;;;;;20.30;52.34;102841.63;4960368;28;124615;-69
2021/10/09 12:38:01;;;;;;;24.73;15.32;;;;;;;20.36;52.58;102835.94;4954978;28;124061;-68
2021/10/09 12:40:41;;;;;;;27.25;15.90;;;;;;;20.46;52.21;102840.81;4967698;28;119639;-69
2021/10/09 12:43:12;;;;;;;25.00;15.73;;;;;;;20.51;52.11;102831.53;4966090;28;119110;-69
2021/10/09 12:45:40;;;;;;;27.20;15.45;;;;;;;20.54;51.82;102834.03;4958654;28;124464;-68
2021/10/09 12:48:08;;;;;;;28.33;16.25;;;;;;;20.56;51.84;102831.25;4962402;28;124348;-68
2021/10/09 12:50:39;;;;;;;24.25;15.27;;;;;;;20.60;51.97;102827.47;4952819;28;119717;-68
2021/10/09 12:53:07;;;;;;;26.02;16.00;;;;;;;20.65;51.61;102830.78;4959117;28;120315;-68
2021/10/09 12:55:36;;;;;;;24.55;14.82;;;;;;;20.68;51.28;102825.25;4956404;28;124743;-68
2021/10/09 12:58:09;;;;;;;24.50;15.60;;;;;;;20.71;51.59;102822.34;4945112;28;122751;-69
2021/10/09 13:00:38;;;;;;;24.50;15.52;;;;;;;20.78;51.53;102821.06;4958560;28;120541;-69
2021/10/09 13:03:06;;;;;;;25.05;15.23;;;;;;;20.85;51.39;102820.69;4959681;28;119807;-69
2021/10/09 13:05:34;;;;;;;25.27;13.88;;;;;;;20.89;51.15;102817.75;4949313;28;124049;-69
2021/10/09 13:08:03;;;;;;;25.33;15.23;;;;;;;20.95;50.86;102816.53;4954332;28;123738;-69
2021/10/09 13:10:39;;;;;;;24.48;15.15;;;;;;;20.96;50.96;102810.19;4957585;28;119358;-69
2021/10/09 13:13:06;;;;;;;25.15;14.23;;;;;;;21.01;50.93;102810.78;4944363;28;118053;-69
2021/10/09 13:15:33;;;;;;;26.48;14.80;;;;;;;21.05;50.61;102806.94;4940914;28;124723;-69
2021/10/09 13:18:01;;;;;;;25.40;15.02;;;;;;;21.07;50.38;102805.03;4949576;28;123695;-69
2021/10/09 13:20:32;;;;;;;24.98;14.60;;;;;;;21.10;50.51;102804.00;4958021;28;119343;-69